Aviation Digital Data Service (ADDS)

Output produced by METARs form (1851 UTC 14 February 2016)
found at http://aviationweather.gov/adds/metars/
 
KBDR 141735Z 1418/1518 33012G20KT P6SM SKC 
     FM141900 31010KT P6SM SKC 
     FM142300 VRB05KT P6SM SCT250 
     FM151500 10007KT 2SM -SN BKN012